Aeroporto :
LOGIN :

Iscrizione | Disclaimer

   EN    FR    IT 

 










Sommario :    VFR   VFR Marginale   IFR   IFR Intensivo   IFR Molto Intensivo
Visibilità : 
Base nubi : 
>= 8 km
>= 3000ft
5 / 8 km
1000 / 3000 ft
1500m / 5 km
500 / 1000 ft
800 / 1500m
200 / 500 ft
< 800m
< 200 ft
Simboli :   Temporali  Nebbia  Neve Forte  Precipitazioni Forti  Vento > 20 kt
SIGMETs :   Varie  Temporali  Ghiacco  Turbolenza  Onda orograficha  Ceneri Vulcaniche







- Altitudine del aeroporto : 290 ft
- Codice IATA : LAI
- Carte del aeroporto


LFRO - Lannion

ULTIMO METAR :
  • 161300Z AUTO 17008KT 130V200 9999 BKN013 14/11 Q1023 BECMG SCT020 SCT040

METARs OBSOLETI :
  • 161230Z AUTO 17007KT 140V200 9999 OVC011 13/10 Q1023 BECMG SCT020 SCT040
  • 161200Z AUTO 17007KT 140V210 9999 OVC009 12/11 Q1024 BECMG SCT020 SCT040
  • 161130Z AUTO 16008KT 9999 OVC008 11/10 Q1024 BECMG SCT020 SCT040
  • 161100Z AUTO 16007KT 140V200 9999 BKN005 OVC009 10/10 Q1024 BECMG SCT020 SCT040
  • 161030Z AUTO 17006KT 4700 BR OVC004 10/09 Q1024 BECMG 7000 NSW SCT020 SCT040

TAF AMD TAF LFRO
Valido dal 16 a 12 ore il 17 a 12 ore UTC


161111Z 1612/1712 17010KT 8000 OVC004
BECMG 1612/1614 SCT020 SCT040
BECMG 1621/1624 16012G25KT
BECMG 1706/1708 20015G25KT BKN003
BECMG 1710/1712 4000 RADZ OVC002
Nessun NOTAM noto per questo aeroporto.



MetMap, La meteo Aeronautica in un colpo d'occhio ! - Copyright ORBIFLY Dicembre 2007 - Disclaimer

ORBIFLY MET'MAP TEAM :

Programmazione e sviluppo : Alexandra Zaïnal
Concezione e sviluppo : Baudouin d'Aumeries
Co-Programmazione e sviluppo : Marc-Olivier Méhu
Supporto tecnico e logistico : Manuel Goepfert
Aiuto per la traduzione : Arnaldo La Scala

Contatto : metmap@orbifly.com




FONTI E CREDITI :

   NOAA